createdAt,value
2017-03-09T00:00:49.117Z,10.48
2017-03-09T00:02:02.594Z,10.48
2017-03-09T00:03:16.142Z,10.5
2017-03-09T00:04:30.960Z,10.52
2017-03-09T00:05:45.358Z,10.57
2017-03-09T00:06:58.847Z,10.58
2017-03-09T00:08:12.667Z,10.6
2017-03-09T00:09:26.700Z,10.6
2017-03-09T00:10:41.485Z,10.59
2017-03-09T00:11:55.421Z,10.56
2017-03-09T00:13:09.368Z,10.55
2017-03-09T00:14:22.978Z,10.57
2017-03-09T00:15:36.951Z,10.58
2017-03-09T00:16:50.834Z,10.59
2017-03-09T00:18:04.736Z,10.61
2017-03-09T00:19:19.044Z,10.62
2017-03-09T00:20:33.346Z,10.63
2017-03-09T00:21:46.840Z,10.63
2017-03-09T00:23:00.376Z,10.64
2017-03-09T00:24:14.668Z,10.66
2017-03-09T00:25:28.680Z,10.69
2017-03-09T00:26:42.174Z,10.71
2017-03-09T00:27:56.226Z,10.76
2017-03-09T00:29:09.688Z,10.76
2017-03-09T00:30:24.218Z,10.78
2017-03-09T00:31:38.149Z,10.75
2017-03-09T00:32:51.898Z,10.72
2017-03-09T00:34:06.310Z,10.69
2017-03-09T00:35:20.666Z,10.68
2017-03-09T00:36:34.566Z,10.67
2017-03-09T00:37:48.510Z,10.62
2017-03-09T00:39:02.782Z,10.62
2017-03-09T00:40:17.157Z,10.61
2017-03-09T00:41:31.124Z,10.6
2017-03-09T00:42:44.979Z,10.62
2017-03-09T00:43:59.542Z,10.61
2017-03-09T00:45:14.272Z,10.64
2017-03-09T00:46:27.948Z,10.64
2017-03-09T00:47:41.444Z,10.66
2017-03-09T00:48:55.019Z,10.68
2017-03-09T00:50:11.111Z,10.7
2017-03-09T00:51:25.487Z,10.73
2017-03-09T00:52:39.869Z,10.72
2017-03-09T00:53:53.571Z,10.71
2017-03-09T00:55:08.295Z,10.68
2017-03-09T00:56:22.421Z,10.68
2017-03-09T00:57:36.298Z,10.67
2017-03-09T00:58:50.334Z,10.66
2017-03-09T01:00:03.896Z,10.64
2017-03-09T01:01:17.896Z,10.62
2017-03-09T01:02:32.335Z,10.62
2017-03-09T01:03:46.404Z,10.61
2017-03-09T01:04:59.880Z,10.61
2017-03-09T01:06:14.291Z,10.61
2017-03-09T01:07:27.842Z,10.62
2017-03-09T01:08:41.404Z,10.6
2017-03-09T01:09:55.581Z,10.59
2017-03-09T01:11:09.066Z,10.59
2017-03-09T01:12:22.596Z,10.61
2017-03-09T01:13:36.106Z,10.63
2017-03-09T01:14:50.009Z,10.65
2017-03-09T01:16:04.137Z,10.67
2017-03-09T01:17:17.622Z,10.67
2017-03-09T01:18:31.672Z,10.67
2017-03-09T01:19:45.161Z,10.67
2017-03-09T01:20:58.640Z,10.67
2017-03-09T01:22:13.317Z,10.69
2017-03-09T01:23:26.845Z,10.69
2017-03-09T01:25:06.015Z,10.71
2017-03-09T01:26:20.017Z,10.72
2017-03-09T01:27:33.994Z,10.71
2017-03-09T01:28:47.888Z,10.71
2017-03-09T01:30:02.248Z,10.7
2017-03-09T01:31:15.708Z,10.66
2017-03-09T01:32:29.706Z,10.63
2017-03-09T01:33:43.651Z,10.59
2017-03-09T01:34:57.227Z,10.54
2017-03-09T01:36:10.722Z,10.49
2017-03-09T01:37:24.585Z,10.44
2017-03-09T01:38:39.097Z,10.41
2017-03-09T01:39:54.074Z,10.42
2017-03-09T01:41:08.062Z,10.44
2017-03-09T01:42:21.565Z,10.46
2017-03-09T01:43:35.496Z,10.48
2017-03-09T01:44:48.973Z,10.52
2017-03-09T01:46:02.752Z,10.53
2017-03-09T01:47:16.819Z,10.56
2017-03-09T01:48:30.361Z,10.58
2017-03-09T01:49:43.854Z,10.61
2017-03-09T01:50:57.517Z,10.64
2017-03-09T01:52:11.894Z,10.68
2017-03-09T01:53:25.476Z,10.71
2017-03-09T01:54:39.395Z,10.74
2017-03-09T01:55:54.359Z,10.77
2017-03-09T01:57:15.564Z,10.8
2017-03-09T01:58:33.185Z,10.83
2017-03-09T01:59:47.418Z,10.87
2017-03-09T02:01:07.272Z,10.92
2017-03-09T02:02:20.733Z,10.96
2017-03-09T02:03:34.270Z,10.99
2017-03-09T02:04:48.126Z,11.01
2017-03-09T02:06:01.560Z,11.05
2017-03-09T02:07:17.218Z,11.04
2017-03-09T02:08:30.785Z,11.05
2017-03-09T02:09:44.576Z,11.04
2017-03-09T02:10:58.150Z,11.04
2017-03-09T02:12:11.635Z,11.05
2017-03-09T02:13:25.052Z,11.06
2017-03-09T02:14:38.552Z,11.08
2017-03-09T02:15:52.265Z,11.08
2017-03-09T02:17:05.691Z,11.08
2017-03-09T02:18:19.126Z,11.09
2017-03-09T02:19:32.671Z,11.07
2017-03-09T02:20:46.136Z,11.07
2017-03-09T02:21:59.862Z,11.05
2017-03-09T02:23:13.770Z,11.04
2017-03-09T02:24:27.234Z,11
2017-03-09T02:25:40.814Z,10.95
2017-03-09T02:26:54.256Z,10.91
2017-03-09T02:28:08.029Z,10.89
2017-03-09T02:29:21.875Z,10.84
2017-03-09T02:30:35.933Z,10.83
2017-03-09T02:31:49.784Z,10.81
2017-03-09T02:33:03.666Z,10.78
2017-03-09T02:34:17.784Z,10.76
2017-03-09T02:35:31.711Z,10.76
2017-03-09T02:36:45.232Z,10.77
2017-03-09T02:37:58.719Z,10.78
2017-03-09T02:39:12.163Z,10.79
2017-03-09T02:40:25.861Z,10.78
2017-03-09T02:41:39.361Z,10.78
2017-03-09T02:42:53.029Z,10.77
2017-03-09T02:44:07.173Z,10.76
2017-03-09T02:45:20.657Z,10.75
2017-03-09T02:46:34.600Z,10.72
2017-03-09T02:47:48.042Z,10.71
2017-03-09T02:49:01.516Z,10.71
2017-03-09T02:50:14.955Z,10.71
2017-03-09T02:51:28.505Z,10.7
2017-03-09T02:52:43.051Z,10.66
2017-03-09T02:53:56.481Z,10.63
2017-03-09T02:55:09.957Z,10.59
2017-03-09T02:56:23.892Z,10.57
2017-03-09T02:57:37.336Z,10.56
2017-03-09T02:58:51.480Z,10.52
2017-03-09T03:00:04.921Z,10.52
2017-03-09T03:01:18.805Z,10.49
2017-03-09T03:02:32.391Z,10.48
2017-03-09T03:03:46.263Z,10.48
2017-03-09T03:04:59.975Z,10.5
2017-03-09T03:06:13.433Z,10.52
2017-03-09T03:07:26.907Z,10.53
2017-03-09T03:08:40.769Z,10.55
2017-03-09T03:09:54.325Z,10.58
2017-03-09T03:11:08.037Z,10.61
2017-03-09T03:12:21.470Z,10.62
2017-03-09T03:13:34.962Z,10.63
2017-03-09T03:14:48.388Z,10.64
2017-03-09T03:16:01.837Z,10.67
2017-03-09T03:17:15.593Z,10.68
2017-03-09T03:18:29.079Z,10.7
2017-03-09T03:19:42.491Z,10.71
2017-03-09T03:20:55.904Z,10.72
2017-03-09T03:22:09.748Z,10.75
2017-03-09T03:23:25.679Z,10.75
2017-03-09T03:24:39.116Z,10.76
2017-03-09T03:25:52.545Z,10.75
2017-03-09T03:27:06.393Z,10.73
2017-03-09T03:28:20.294Z,10.74
2017-03-09T03:29:34.984Z,10.72
2017-03-09T03:30:48.477Z,10.65
2017-03-09T03:32:02.344Z,10.58
2017-03-09T03:33:15.797Z,10.51
2017-03-09T03:34:29.453Z,10.42
2017-03-09T03:35:43.271Z,10.36
2017-03-09T03:36:57.122Z,10.29
2017-03-09T03:38:10.629Z,10.24
2017-03-09T03:39:24.174Z,10.2
2017-03-09T03:40:38.089Z,10.21
2017-03-09T03:41:51.959Z,10.2
2017-03-09T03:43:05.454Z,10.18
2017-03-09T03:44:19.077Z,10.19
2017-03-09T03:45:32.808Z,10.21
2017-03-09T03:46:46.374Z,10.21
2017-03-09T03:48:00.238Z,10.2
2017-03-09T03:49:13.832Z,10.2
2017-03-09T03:50:27.679Z,10.22
2017-03-09T03:51:41.709Z,10.25
2017-03-09T03:52:55.274Z,10.29
2017-03-09T03:54:09.280Z,10.32
2017-03-09T03:55:29.609Z,10.34
2017-03-09T03:56:44.019Z,10.38
2017-03-09T03:57:57.715Z,10.42
2017-03-09T03:59:11.833Z,10.47
2017-03-09T04:00:25.714Z,10.49
2017-03-09T04:01:39.234Z,10.5
2017-03-09T04:02:52.742Z,10.54
2017-03-09T04:04:06.193Z,10.58
2017-03-09T04:05:20.509Z,10.61
2017-03-09T04:06:34.267Z,10.63
2017-03-09T04:07:47.829Z,10.67
2017-03-09T04:09:01.734Z,10.66
2017-03-09T04:10:16.068Z,10.66
2017-03-09T04:11:29.578Z,10.65
2017-03-09T04:12:43.348Z,10.66
2017-03-09T04:13:56.927Z,10.66
2017-03-09T04:15:10.915Z,10.66
2017-03-09T04:16:24.591Z,10.66
2017-03-09T04:17:38.497Z,10.66
2017-03-09T04:18:52.770Z,10.64
2017-03-09T04:20:06.704Z,10.61
2017-03-09T04:24:34.645Z,10.54
2017-03-09T04:25:48.848Z,10.53
2017-03-09T04:27:02.726Z,10.55
2017-03-09T04:28:16.636Z,10.56
2017-03-09T04:29:30.130Z,10.57
2017-03-09T04:30:43.672Z,10.57
2017-03-09T04:31:57.467Z,10.58
2017-03-09T04:33:11.470Z,10.58
2017-03-09T04:34:25.750Z,10.61
2017-03-09T04:35:39.857Z,10.64
2017-03-09T04:36:53.453Z,10.66
2017-03-09T04:38:07.568Z,10.69
2017-03-09T04:39:21.870Z,10.72
2017-03-09T04:40:35.453Z,10.74
2017-03-09T04:41:51.606Z,10.76
2017-03-09T04:43:05.065Z,10.79
2017-03-09T04:44:18.768Z,10.79
2017-03-09T04:45:32.681Z,10.8
2017-03-09T04:46:46.149Z,10.8
2017-03-09T04:48:00.033Z,10.81
2017-03-09T04:49:13.529Z,10.82
2017-03-09T04:50:27.673Z,10.84
2017-03-09T04:51:41.931Z,10.85
2017-03-09T04:52:55.462Z,10.88
2017-03-09T04:54:09.028Z,10.9
2017-03-09T04:55:22.950Z,10.91
2017-03-09T04:56:37.803Z,10.93
2017-03-09T04:57:51.451Z,10.95
2017-03-09T04:59:04.921Z,10.96
2017-03-09T05:00:18.494Z,10.95
2017-03-09T05:01:32.591Z,10.94
2017-03-09T05:02:46.883Z,10.9
2017-03-09T05:04:00.555Z,10.84
2017-03-09T05:05:14.574Z,10.8
2017-03-09T05:06:28.129Z,10.77
2017-03-09T05:07:41.800Z,10.75
2017-03-09T05:08:56.095Z,10.77
2017-03-09T05:10:09.561Z,10.79
2017-03-09T05:11:23.008Z,10.8
2017-03-09T05:12:36.892Z,10.83
2017-03-09T05:13:50.339Z,10.85
2017-03-09T05:15:04.122Z,10.86
2017-03-09T05:16:17.545Z,10.86
2017-03-09T05:17:31.053Z,10.87
2017-03-09T05:18:44.537Z,10.87
2017-03-09T05:19:58.470Z,10.89
2017-03-09T05:21:12.198Z,10.92
2017-03-09T05:22:26.114Z,10.96
2017-03-09T05:23:39.637Z,11
2017-03-09T05:24:53.524Z,11.06
2017-03-09T05:26:06.968Z,11.1
2017-03-09T05:27:20.988Z,11.14
2017-03-09T05:28:34.595Z,11.16
2017-03-09T05:29:48.100Z,11.18
2017-03-09T05:31:01.595Z,11.16
2017-03-09T05:32:15.081Z,11.13
2017-03-09T05:33:29.441Z,11.13
2017-03-09T05:34:42.964Z,11.14
2017-03-09T05:35:56.853Z,11.16
2017-03-09T05:37:10.446Z,11.16
2017-03-09T05:38:24.293Z,11.16
2017-03-09T05:40:35.811Z,11.15
2017-03-09T05:48:52.187Z,11.13
2017-03-09T05:50:05.652Z,11.16
2017-03-09T05:51:19.136Z,11.18
2017-03-09T05:52:32.568Z,11.19
2017-03-09T05:53:46.060Z,11.21
2017-03-09T05:54:59.549Z,11.23
2017-03-09T05:56:13.303Z,11.26
2017-03-09T05:57:27.567Z,11.29
2017-03-09T05:58:40.993Z,11.31
2017-03-09T05:59:54.445Z,11.34
2017-03-09T06:01:07.925Z,11.36
2017-03-09T06:02:21.691Z,11.39
2017-03-09T06:03:37.433Z,11.41
2017-03-09T06:04:50.964Z,11.42
2017-03-09T06:06:04.393Z,11.42
2017-03-09T06:07:17.828Z,11.41
2017-03-09T06:08:31.991Z,11.41
2017-03-09T06:09:46.047Z,11.4
2017-03-09T06:11:00.987Z,11.38
2017-03-09T06:12:14.407Z,11.36
2017-03-09T06:13:27.850Z,11.34
2017-03-09T06:14:41.870Z,11.3
2017-03-09T06:15:55.471Z,11.23
2017-03-09T06:17:09.651Z,11.19
2017-03-09T06:18:23.142Z,11.16
2017-03-09T06:19:36.621Z,11.16
2017-03-09T06:20:51.230Z,11.17
2017-03-09T06:22:04.719Z,11.17
2017-03-09T06:23:18.191Z,11.18
2017-03-09T06:24:32.122Z,11.2
2017-03-09T06:25:46.105Z,11.21
2017-03-09T06:26:59.973Z,11.23
2017-03-09T06:28:13.489Z,11.24
2017-03-09T06:29:27.360Z,11.25
2017-03-09T06:30:40.793Z,11.26
2017-03-09T06:31:54.303Z,11.27
2017-03-09T06:33:08.111Z,11.31
2017-03-09T06:34:21.966Z,11.34
2017-03-09T06:35:35.395Z,11.37
2017-03-09T06:36:49.062Z,11.41
2017-03-09T06:38:03.322Z,11.44
2017-03-09T06:39:17.500Z,11.45
2017-03-09T06:40:30.955Z,11.47
2017-03-09T06:41:44.703Z,11.48
2017-03-09T06:42:58.710Z,11.49
2017-03-09T06:44:12.560Z,11.52
2017-03-09T06:45:26.403Z,11.54
2017-03-09T06:46:39.834Z,11.57
2017-03-09T06:47:53.886Z,11.59
2017-03-09T06:49:07.345Z,11.61
2017-03-09T06:50:21.225Z,11.63
2017-03-09T06:51:35.087Z,11.64
2017-03-09T06:53:20.746Z,11.64
2017-03-09T06:54:34.185Z,11.62
2017-03-09T06:55:47.636Z,11.63
2017-03-09T06:57:01.192Z,11.63
2017-03-09T06:58:14.674Z,11.62
2017-03-09T06:59:31.184Z,11.6
2017-03-09T07:00:45.086Z,11.62
2017-03-09T07:01:58.674Z,11.63
2017-03-09T07:03:12.570Z,11.65
2017-03-09T07:04:26.443Z,11.67
2017-03-09T07:05:40.095Z,11.66
2017-03-09T07:06:53.584Z,11.61
2017-03-09T07:08:07.140Z,11.58
2017-03-09T07:09:20.653Z,11.56
2017-03-09T07:10:34.102Z,11.56
2017-03-09T07:11:47.648Z,11.56
2017-03-09T07:13:01.526Z,11.6
2017-03-09T07:14:14.953Z,11.61
2017-03-09T07:15:28.413Z,11.61
2017-03-09T07:16:42.311Z,11.61
2017-03-09T07:17:55.751Z,11.61
2017-03-09T07:19:09.685Z,11.64
2017-03-09T07:20:25.746Z,11.64
2017-03-09T07:21:39.183Z,11.66
2017-03-09T07:22:52.647Z,11.69
2017-03-09T07:24:06.214Z,11.75
2017-03-09T07:25:20.580Z,11.79
2017-03-09T07:26:34.035Z,11.85
2017-03-09T07:27:47.531Z,11.89
2017-03-09T07:29:01.039Z,11.93
2017-03-09T07:30:14.530Z,11.98
2017-03-09T07:31:27.991Z,12.02
2017-03-09T07:32:41.432Z,12.08
2017-03-09T07:33:54.924Z,12.12
2017-03-09T07:35:08.514Z,12.16
2017-03-09T07:36:22.354Z,12.18
2017-03-09T07:37:35.826Z,12.23
2017-03-09T07:38:49.907Z,12.27
2017-03-09T07:40:03.433Z,12.3
2017-03-09T07:41:16.931Z,12.35
2017-03-09T07:42:30.368Z,12.39
2017-03-09T07:43:43.897Z,12.42
2017-03-09T07:44:57.829Z,12.46
2017-03-09T07:46:11.250Z,12.48
2017-03-09T07:47:24.726Z,12.49
2017-03-09T07:48:38.197Z,12.5
2017-03-09T07:49:51.647Z,12.54
2017-03-09T07:51:05.218Z,12.56
2017-03-09T07:52:18.679Z,12.57
2017-03-09T07:53:32.586Z,12.59
2017-03-09T07:54:46.202Z,12.59
2017-03-09T07:55:59.774Z,12.6
2017-03-09T07:57:13.233Z,12.6
2017-03-09T07:58:26.707Z,12.61
2017-03-09T07:59:40.138Z,12.63
2017-03-09T08:00:53.751Z,12.64
2017-03-09T08:02:07.210Z,12.65
2017-03-09T08:03:20.655Z,12.65
2017-03-09T08:04:34.057Z,12.63
2017-03-09T08:05:47.566Z,12.58
2017-03-09T08:07:01.129Z,12.53
2017-03-09T08:08:14.587Z,12.51
2017-03-09T08:09:30.036Z,12.46
2017-03-09T08:10:44.548Z,12.42
2017-03-09T08:12:01.889Z,12.4
2017-03-09T08:13:15.777Z,12.38
2017-03-09T08:14:30.345Z,12.38
2017-03-09T08:15:48.708Z,12.38
2017-03-09T08:17:46.921Z,12.39
2017-03-09T08:19:00.411Z,12.45
2017-03-09T08:20:13.865Z,12.47
2017-03-09T08:21:27.413Z,12.51
2017-03-09T08:22:40.817Z,12.52
2017-03-09T08:26:12.384Z,12.61
2017-03-09T08:27:25.915Z,12.61
2017-03-09T08:28:39.352Z,12.62
2017-03-09T08:29:52.757Z,12.62
2017-03-09T08:31:06.662Z,12.6
2017-03-09T08:32:20.694Z,12.61
2017-03-09T08:33:34.631Z,12.64
2017-03-09T08:34:48.494Z,12.67
2017-03-09T08:36:01.932Z,12.72
2017-03-09T08:37:15.761Z,12.75
2017-03-09T08:39:44.587Z,12.79
2017-03-09T08:40:58.055Z,12.79
2017-03-09T08:42:11.510Z,12.79
2017-03-09T08:43:24.986Z,12.81
2017-03-09T08:44:38.431Z,12.77
2017-03-09T08:45:51.931Z,12.69
2017-03-09T08:47:05.388Z,12.64
2017-03-09T08:48:18.860Z,12.61
2017-03-09T08:49:32.353Z,12.61
2017-03-09T08:50:46.229Z,12.61
2017-03-09T08:51:59.676Z,12.62
2017-03-09T08:53:13.186Z,12.65
2017-03-09T08:54:26.735Z,12.68
2017-03-09T08:55:40.197Z,12.7
2017-03-09T08:56:53.751Z,12.72
2017-03-09T08:58:07.176Z,12.75
2017-03-09T08:59:21.474Z,12.77
2017-03-09T09:00:34.968Z,12.79
2017-03-09T09:01:48.432Z,12.79
2017-03-09T09:03:01.946Z,12.78
2017-03-09T09:04:15.380Z,12.8
2017-03-09T09:05:29.097Z,12.81
2017-03-09T09:06:42.548Z,12.82
2017-03-09T09:07:56.013Z,12.83
2017-03-09T09:09:10.260Z,12.85
2017-03-09T09:10:23.683Z,12.88
2017-03-09T09:11:37.171Z,12.89
2017-03-09T09:12:51.618Z,12.92
2017-03-09T09:14:05.069Z,12.95
2017-03-09T09:15:18.494Z,12.97
2017-03-09T09:16:32.357Z,12.99
2017-03-09T09:17:45.834Z,13.01
2017-03-09T09:18:59.856Z,13.03
2017-03-09T09:20:13.271Z,13.02
2017-03-09T09:21:26.726Z,12.99
2017-03-09T09:22:40.572Z,12.96
2017-03-09T09:23:54.328Z,12.93
2017-03-09T09:25:07.882Z,12.88
2017-03-09T09:26:21.327Z,12.83
2017-03-09T09:27:34.757Z,12.81
2017-03-09T09:28:49.149Z,12.79
2017-03-09T09:30:02.699Z,12.78
2017-03-09T09:31:16.154Z,12.77
2017-03-09T09:32:29.879Z,12.73
2017-03-09T09:33:43.329Z,12.69
2017-03-09T09:34:56.881Z,12.65
2017-03-09T09:36:10.323Z,12.6
2017-03-09T09:37:23.760Z,12.54
2017-03-09T09:38:38.219Z,12.5
2017-03-09T09:39:51.761Z,12.44
2017-03-09T09:41:05.202Z,12.4
2017-03-09T09:42:18.647Z,12.41
2017-03-09T09:43:32.975Z,12.44
2017-03-09T09:44:46.579Z,12.49
2017-03-09T09:46:00.466Z,12.53
2017-03-09T09:47:13.913Z,12.57
2017-03-09T09:48:27.802Z,12.58
2017-03-09T09:49:41.751Z,12.57
2017-03-09T09:50:55.820Z,12.57
2017-03-09T09:52:09.265Z,12.55
2017-03-09T09:53:23.152Z,12.56
2017-03-09T09:54:39.267Z,12.58
2017-03-09T09:55:53.273Z,12.59
2017-03-09T09:57:06.713Z,12.66
2017-03-09T09:58:20.181Z,12.72
2017-03-09T09:59:33.691Z,12.8
2017-03-09T10:00:47.234Z,12.89
2017-03-09T10:02:01.103Z,13.01
2017-03-09T10:03:14.620Z,13.13
2017-03-09T10:04:28.119Z,13.22
2017-03-09T10:05:41.653Z,13.29
2017-03-09T10:06:55.265Z,13.37
2017-03-09T10:08:09.522Z,13.41
2017-03-09T10:09:23.436Z,13.45
2017-03-09T10:10:37.669Z,13.49
2017-03-09T10:11:51.250Z,13.48
2017-03-09T10:13:04.786Z,13.51
2017-03-09T10:14:18.740Z,13.58
2017-03-09T10:15:32.231Z,13.59
2017-03-09T10:16:46.277Z,13.59
2017-03-09T10:18:00.209Z,13.57
2017-03-09T10:19:14.105Z,13.56
2017-03-09T10:20:28.070Z,13.54
2017-03-09T10:21:41.572Z,13.51
2017-03-09T10:22:55.190Z,13.52
2017-03-09T10:24:08.793Z,13.55
2017-03-09T10:25:23.462Z,13.59
2017-03-09T10:26:37.694Z,13.6
2017-03-09T10:27:51.325Z,13.59
2017-03-09T10:29:04.847Z,13.58
2017-03-09T10:30:18.339Z,13.58
2017-03-09T10:31:32.346Z,13.59
2017-03-09T10:32:47.203Z,13.62
2017-03-09T10:34:00.740Z,13.64
2017-03-09T10:35:15.096Z,13.69
2017-03-09T10:36:29.206Z,13.73
2017-03-09T10:37:43.157Z,13.79
2017-03-09T10:38:56.653Z,13.84
2017-03-09T10:40:10.574Z,13.9
2017-03-09T10:41:24.062Z,13.96
2017-03-09T10:42:38.078Z,14.04
2017-03-09T10:43:52.067Z,14.13
2017-03-09T10:45:05.578Z,14.2
2017-03-09T10:46:19.503Z,14.26
2017-03-09T10:47:33.193Z,14.33
2017-03-09T10:48:46.783Z,14.43
2017-03-09T10:50:00.292Z,14.51
2017-03-09T10:51:15.065Z,14.59
2017-03-09T10:52:28.523Z,14.63
2017-03-09T10:53:42.121Z,14.69
2017-03-09T10:54:55.624Z,14.75
2017-03-09T10:56:09.774Z,14.79
2017-03-09T10:57:23.691Z,14.83
2017-03-09T10:58:37.248Z,14.84
2017-03-09T10:59:50.790Z,14.86
2017-03-09T11:01:04.768Z,14.86
2017-03-09T11:02:18.558Z,14.85
2017-03-09T11:03:32.522Z,14.82
2017-03-09T11:04:46.132Z,14.8
2017-03-09T11:06:00.376Z,14.78
2017-03-09T11:07:14.736Z,14.78
2017-03-09T11:08:28.990Z,14.77
2017-03-09T11:09:43.454Z,14.79
2017-03-09T11:10:59.203Z,14.84
2017-03-09T11:12:12.880Z,14.9
2017-03-09T11:13:26.425Z,14.99
2017-03-09T11:14:40.315Z,15.09
2017-03-09T11:15:53.831Z,15.18
2017-03-09T11:17:07.785Z,15.34
2017-03-09T11:18:22.130Z,15.49
2017-03-09T11:19:35.583Z,15.56
2017-03-09T11:20:49.702Z,15.6
2017-03-09T11:22:03.519Z,15.64
2017-03-09T11:23:17.028Z,15.72
2017-03-09T11:24:30.541Z,15.88
2017-03-09T11:25:44.163Z,16.04
2017-03-09T11:26:58.462Z,16.21
2017-03-09T11:28:12.572Z,16.33
2017-03-09T11:29:26.484Z,16.41
2017-03-09T11:30:39.989Z,16.52
2017-03-09T11:31:53.951Z,16.62
2017-03-09T11:33:08.285Z,16.69
2017-03-09T11:34:22.481Z,16.8
2017-03-09T11:35:36.013Z,16.8
2017-03-09T11:36:49.565Z,16.93
2017-03-09T11:38:03.052Z,17.06
2017-03-09T11:39:17.381Z,17.12
2017-03-09T11:40:30.879Z,17.2
2017-03-09T11:41:44.453Z,17.22
2017-03-09T11:42:58.336Z,17.21
2017-03-09T11:44:12.885Z,17.18
2017-03-09T11:45:26.344Z,17.2
2017-03-09T11:46:39.858Z,17.16
2017-03-09T11:47:53.405Z,17.09
2017-03-09T11:49:06.980Z,17.07
2017-03-09T11:50:21.023Z,17.12
2017-03-09T11:51:34.505Z,17.14
2017-03-09T11:52:47.975Z,17.1
2017-03-09T11:54:01.958Z,17.07
2017-03-09T11:55:15.470Z,17.01
2017-03-09T11:56:28.984Z,17.03
2017-03-09T11:57:42.976Z,17.07
2017-03-09T11:58:57.379Z,17.07
2017-03-09T12:00:10.922Z,17.1
2017-03-09T12:01:24.643Z,17.22
2017-03-09T12:02:38.516Z,17.24
2017-03-09T12:03:52.039Z,17.18
2017-03-09T12:05:05.507Z,17.15
2017-03-09T12:06:19.008Z,17.13
2017-03-09T12:07:32.986Z,17.17
2017-03-09T12:08:46.523Z,17.2
2017-03-09T12:10:00.368Z,17.19
2017-03-09T12:11:13.895Z,17.18
2017-03-09T12:12:27.760Z,17.13
2017-03-09T12:13:41.357Z,17.04
2017-03-09T12:14:54.818Z,17.01
2017-03-09T12:16:08.731Z,17.05
2017-03-09T12:17:22.243Z,17.06
2017-03-09T12:18:36.172Z,17
2017-03-09T12:19:50.267Z,16.95
2017-03-09T12:21:03.760Z,16.88
2017-03-09T12:22:17.692Z,16.82
2017-03-09T12:23:31.218Z,16.76
2017-03-09T12:24:44.837Z,16.71
2017-03-09T12:25:58.704Z,16.63
2017-03-09T12:27:14.420Z,16.61
2017-03-09T12:28:28.345Z,16.6
2017-03-09T12:29:41.910Z,16.57
2017-03-09T12:30:55.458Z,16.56
2017-03-09T12:32:09.080Z,16.58
2017-03-09T12:33:23.114Z,16.59
2017-03-09T12:34:36.746Z,16.59
2017-03-09T12:35:50.209Z,16.59
2017-03-09T12:37:04.090Z,16.61
2017-03-09T12:38:18.397Z,16.61
2017-03-09T12:39:31.845Z,16.63
2017-03-09T12:40:45.495Z,16.66
2017-03-09T12:41:59.275Z,16.7
2017-03-09T12:43:12.724Z,16.74
2017-03-09T12:44:26.649Z,16.79
2017-03-09T12:45:40.286Z,16.82
2017-03-09T12:46:54.184Z,16.82
2017-03-09T12:48:07.686Z,16.83
2017-03-09T12:49:21.625Z,16.87
2017-03-09T12:50:35.611Z,16.91
2017-03-09T12:51:49.610Z,17.01
2017-03-09T12:53:04.306Z,17.11
2017-03-09T12:54:17.918Z,17.21
2017-03-09T12:55:31.411Z,17.28
2017-03-09T12:56:44.971Z,17.35
2017-03-09T12:57:58.926Z,17.4
2017-03-09T12:59:13.144Z,17.54
2017-03-09T13:00:26.643Z,17.61
2017-03-09T13:01:40.308Z,17.64
2017-03-09T13:02:53.868Z,17.71
2017-03-09T13:04:07.440Z,17.78
2017-03-09T13:05:20.955Z,17.86
2017-03-09T13:06:34.488Z,17.88
2017-03-09T13:07:49.273Z,17.88
2017-03-09T13:09:02.759Z,17.88
2017-03-09T13:10:16.748Z,17.89
2017-03-09T13:11:30.724Z,17.89
2017-03-09T13:12:44.607Z,17.9
2017-03-09T13:13:58.138Z,17.95
2017-03-09T13:15:12.111Z,17.98
2017-03-09T13:16:26.499Z,18
2017-03-09T13:17:40.065Z,18.02
2017-03-09T13:18:53.570Z,18.05
2017-03-09T13:20:07.112Z,18.09
2017-03-09T13:21:20.590Z,18.12
2017-03-09T13:22:35.248Z,18.14
2017-03-09T13:23:49.109Z,18.2
2017-03-09T13:25:03.048Z,18.26
2017-03-09T13:26:16.725Z,18.35
2017-03-09T13:27:30.481Z,18.45
2017-03-09T13:28:44.382Z,18.53
2017-03-09T13:29:57.847Z,18.63
2017-03-09T13:31:11.340Z,18.71
2017-03-09T13:32:24.973Z,18.78
2017-03-09T13:33:38.619Z,18.82
2017-03-09T13:34:52.503Z,18.83
2017-03-09T13:36:06.027Z,18.85
2017-03-09T13:37:19.932Z,18.91
2017-03-09T13:38:34.549Z,18.97
2017-03-09T13:39:48.729Z,19.07
2017-03-09T13:41:02.578Z,19.14
2017-03-09T13:42:16.050Z,19.2
2017-03-09T13:43:32.649Z,19.24
2017-03-09T13:44:46.450Z,19.23
2017-03-09T13:45:59.952Z,19.18
2017-03-09T13:47:13.448Z,19.14
2017-03-09T13:48:26.913Z,19.09
2017-03-09T13:49:40.424Z,19
2017-03-09T13:50:53.943Z,18.92
2017-03-09T13:52:07.430Z,18.87
2017-03-09T13:53:20.896Z,18.81
2017-03-09T13:54:35.503Z,18.79
2017-03-09T13:55:48.994Z,18.74
2017-03-09T13:57:02.851Z,18.74
2017-03-09T13:58:16.357Z,18.73
2017-03-09T13:59:30.243Z,18.7
2017-03-09T14:00:44.069Z,18.66
2017-03-09T14:01:57.507Z,18.62
2017-03-09T14:03:11.431Z,18.61
2017-03-09T14:04:24.900Z,18.59
2017-03-09T14:05:39.022Z,18.58
2017-03-09T14:06:53.149Z,18.57
2017-03-09T14:08:06.635Z,18.56
2017-03-09T14:09:20.509Z,18.58
2017-03-09T14:10:34.021Z,18.57
2017-03-09T14:11:47.468Z,18.55
2017-03-09T14:13:01.217Z,18.52
2017-03-09T14:14:15.179Z,18.5
2017-03-09T14:15:47.919Z,18.51
2017-03-09T14:17:01.380Z,18.54
2017-03-09T14:18:14.820Z,18.59
2017-03-09T14:19:28.724Z,18.61
2017-03-09T14:20:43.009Z,18.61
2017-03-09T14:21:56.596Z,18.55
2017-03-09T14:23:10.112Z,18.41
2017-03-09T14:24:23.669Z,18.28
2017-03-09T14:25:37.111Z,18.22
2017-03-09T14:26:50.691Z,18.12
2017-03-09T14:28:04.999Z,18.08
2017-03-09T14:29:19.345Z,18.06
2017-03-09T14:30:33.089Z,18.04
2017-03-09T14:31:46.676Z,18.01
2017-03-09T14:33:00.111Z,17.99
2017-03-09T14:34:13.571Z,17.95
2017-03-09T14:35:27.246Z,17.92
2017-03-09T14:36:41.130Z,17.88
2017-03-09T14:37:54.730Z,17.9
2017-03-09T14:39:08.197Z,17.93
2017-03-09T14:40:21.666Z,17.93
2017-03-09T14:41:35.160Z,17.93
2017-03-09T14:42:48.832Z,17.95
2017-03-09T14:44:02.768Z,17.97
2017-03-09T14:45:16.300Z,18.01
2017-03-09T14:48:59.976Z,18.13
2017-03-09T14:50:13.528Z,18.13
2017-03-09T14:51:28.011Z,18.1
2017-03-09T14:52:41.929Z,18.08
2017-03-09T14:53:56.007Z,18.07
2017-03-09T14:55:10.143Z,18.05
2017-03-09T14:56:24.534Z,18.07
2017-03-09T14:57:38.066Z,18.1
2017-03-09T15:00:49.789Z,18.21
2017-03-09T15:02:05.493Z,18.32
2017-03-09T15:03:18.987Z,18.4
2017-03-09T15:04:32.895Z,18.45
2017-03-09T15:05:46.457Z,18.48
2017-03-09T15:06:59.927Z,18.52
2017-03-09T15:08:13.834Z,18.55
2017-03-09T15:09:27.363Z,18.53
2017-03-09T15:10:40.959Z,18.5
2017-03-09T15:11:55.019Z,18.48
2017-03-09T15:13:08.530Z,18.5
2017-03-09T15:14:22.321Z,18.55
2017-03-09T15:15:35.792Z,18.61
2017-03-09T15:16:50.367Z,18.67
2017-03-09T15:18:03.865Z,18.74
2017-03-09T15:19:17.332Z,18.8
2017-03-09T15:20:30.901Z,18.85
2017-03-09T15:21:44.861Z,18.9
2017-03-09T15:22:58.416Z,18.97
2017-03-09T15:24:11.903Z,18.96
2017-03-09T15:25:25.385Z,18.9
2017-03-09T15:26:38.963Z,18.83
2017-03-09T15:27:52.441Z,18.71
2017-03-09T15:29:48.259Z,18.57
2017-03-09T15:31:02.134Z,18.38
2017-03-09T15:32:16.058Z,18.28
2017-03-09T15:33:29.948Z,18.2
2017-03-09T15:34:43.436Z,18.13
2017-03-09T15:35:56.976Z,18.09
2017-03-09T15:37:10.842Z,18.04
2017-03-09T15:38:24.374Z,17.99
2017-03-09T15:39:38.250Z,17.91
2017-03-09T15:40:51.727Z,17.81
2017-03-09T15:42:05.605Z,17.73
2017-03-09T15:43:35.210Z,17.7
2017-03-09T15:44:51.045Z,17.68
2017-03-09T15:46:14.450Z,17.67
2017-03-09T15:47:38.902Z,17.64
2017-03-09T15:49:02.789Z,17.62
2017-03-09T15:50:24.865Z,17.6
2017-03-09T15:51:38.351Z,17.59
2017-03-09T15:52:52.465Z,17.61
2017-03-09T15:54:06.739Z,17.66
2017-03-09T15:55:45.886Z,17.71
2017-03-09T15:56:59.886Z,17.76
2017-03-09T15:58:13.490Z,17.81
2017-03-09T15:59:27.080Z,17.85
2017-03-09T16:00:40.533Z,17.88
2017-03-09T16:01:54.011Z,17.92
2017-03-09T16:03:08.252Z,17.93
2017-03-09T16:04:22.894Z,17.94
2017-03-09T16:05:37.276Z,17.96
2017-03-09T16:06:52.277Z,17.99
2017-03-09T16:08:06.575Z,18
2017-03-09T16:09:20.089Z,18
2017-03-09T16:10:33.805Z,17.99
2017-03-09T16:11:47.380Z,17.97
2017-03-09T16:13:01.095Z,17.93
2017-03-09T16:14:15.730Z,17.9
2017-03-09T16:15:29.235Z,17.89
2017-03-09T16:16:42.985Z,17.89
2017-03-09T16:17:56.441Z,17.9